createdAt,value
2022-11-17T00:00:19.608Z,962.78
2022-11-17T00:01:00.908Z,962.71
2022-11-17T00:01:34.039Z,962.71
2022-11-17T00:01:51.400Z,962.71
2022-11-17T00:02:21.559Z,962.71
2022-11-17T00:02:53.058Z,962.78
2022-11-17T00:03:23.782Z,962.78
2022-11-17T00:03:54.826Z,962.61
2022-11-17T00:04:25.967Z,962.61
2022-11-17T00:04:56.436Z,962.78
2022-11-17T00:05:27.643Z,962.61
2022-11-17T00:06:00.415Z,962.61
2022-11-17T00:06:31.540Z,962.71
2022-11-17T00:07:01.201Z,962.71
2022-11-17T00:07:37.626Z,962.51
2022-11-17T00:08:31.273Z,962.51
2022-11-17T00:09:05.047Z,962.61
2022-11-17T00:09:35.818Z,962.78
2022-11-17T00:10:06.765Z,962.78
2022-11-17T00:10:37.358Z,962.78
2022-11-17T00:11:09.871Z,962.78
2022-11-17T00:11:41.494Z,962.71
2022-11-17T00:12:11.278Z,962.71
2022-11-17T00:12:41.764Z,962.88
2022-11-17T00:13:12.532Z,962.88
2022-11-17T00:13:43.303Z,962.78
2022-11-17T00:14:14.769Z,962.78
2022-11-17T00:14:45.760Z,962.88
2022-11-17T00:15:17.840Z,962.88
2022-11-17T00:15:47.795Z,962.88
2022-11-17T00:16:19.958Z,962.88
2022-11-17T00:16:51.219Z,962.61
2022-11-17T00:17:21.360Z,962.61
2022-11-17T00:17:51.742Z,962.71
2022-11-17T00:18:22.222Z,962.71
2022-11-17T00:19:03.669Z,962.78
2022-11-17T00:19:24.828Z,962.78
2022-11-17T00:19:56.322Z,962.99
2022-11-17T00:20:27.498Z,962.99
2022-11-17T00:20:58.944Z,962.88
2022-11-17T00:21:29.708Z,962.78
2022-11-17T00:22:01.363Z,962.78
2022-11-17T00:22:31.338Z,962.88
2022-11-17T00:23:19.946Z,962.88
2022-11-17T00:23:41.858Z,962.71
2022-11-17T00:24:03.588Z,962.71
2022-11-17T00:24:34.973Z,962.71
2022-11-17T00:25:06.015Z,962.71
2022-11-17T00:25:36.574Z,962.78
2022-11-17T00:26:07.680Z,962.78
2022-11-17T00:26:39.700Z,962.88
2022-11-17T00:27:11.562Z,962.88
2022-11-17T00:27:41.533Z,962.78
2022-11-17T00:28:14.083Z,962.78
2022-11-17T00:28:42.721Z,962.99
2022-11-17T00:29:13.342Z,962.99
2022-11-17T00:29:44.866Z,962.99
2022-11-17T00:30:16.187Z,962.99
2022-11-17T00:30:46.459Z,962.71
2022-11-17T00:31:52.819Z,962.71
2022-11-17T00:32:06.529Z,962.88
2022-11-17T00:32:21.759Z,962.88
2022-11-17T00:32:52.763Z,962.78
2022-11-17T00:33:22.223Z,962.78
2022-11-17T00:33:52.568Z,962.78
2022-11-17T00:34:23.845Z,962.78
2022-11-17T00:34:54.953Z,962.71
2022-11-17T00:35:25.812Z,962.71
2022-11-17T00:35:56.725Z,962.71
2022-11-17T00:36:27.724Z,962.61
2022-11-17T00:36:59.350Z,962.61
2022-11-17T00:37:31.164Z,962.51
2022-11-17T00:38:01.489Z,962.51
2022-11-17T00:38:31.859Z,962.88
2022-11-17T00:39:02.608Z,962.88
2022-11-17T00:39:34.467Z,962.78
2022-11-17T00:40:05.711Z,962.78
2022-11-17T00:40:35.987Z,962.71
2022-11-17T00:41:06.551Z,962.71
2022-11-17T00:41:37.598Z,962.78
2022-11-17T00:42:08.580Z,962.78
2022-11-17T00:42:56.547Z,962.71
2022-11-17T00:43:12.693Z,962.71
2022-11-17T00:43:42.363Z,962.61
2022-11-17T00:44:43.676Z,962.99
2022-11-17T00:45:14.908Z,962.99
2022-11-17T00:45:45.826Z,962.71
2022-11-17T00:46:16.642Z,962.71
2022-11-17T00:46:47.460Z,962.78
2022-11-17T00:47:18.414Z,962.78
2022-11-17T00:47:49.681Z,962.71
2022-11-17T00:48:21.760Z,962.71
2022-11-17T00:48:51.924Z,962.71
2022-11-17T00:49:23.073Z,962.71
2022-11-17T00:49:53.836Z,962.61
2022-11-17T00:50:24.683Z,962.61
2022-11-17T00:50:55.971Z,962.51
2022-11-17T00:51:26.787Z,962.51
2022-11-17T00:52:02.728Z,962.51
2022-11-17T00:52:30.811Z,962.61
2022-11-17T00:53:01.942Z,962.61
2022-11-17T00:53:32.300Z,962.41
2022-11-17T00:54:02.053Z,962.41
2022-11-17T00:54:32.931Z,962.41
2022-11-17T00:55:04.140Z,962.41
2022-11-17T00:55:34.894Z,962.71
2022-11-17T00:56:06.043Z,962.71
2022-11-17T00:56:37.075Z,962.61
2022-11-17T00:57:08.438Z,962.61
2022-11-17T00:57:38.512Z,962.51
2022-11-17T00:58:11.924Z,962.51
2022-11-17T00:58:57.949Z,962.41
2022-11-17T00:59:12.786Z,962.41
2022-11-17T00:59:43.046Z,962.51
2022-11-17T01:00:15.277Z,962.51
2022-11-17T01:00:44.963Z,962.41
2022-11-17T01:01:16.284Z,962.41
2022-11-17T01:01:47.187Z,962.31
2022-11-17T01:02:17.873Z,962.31
2022-11-17T01:02:48.636Z,962.31
2022-11-17T01:03:22.051Z,962.31
2022-11-17T01:03:52.178Z,962.41
2022-11-17T01:04:53.251Z,962.41
2022-11-17T01:05:23.741Z,962.41
2022-11-17T01:05:55.152Z,962.31
2022-11-17T01:06:25.918Z,962.31
2022-11-17T01:06:56.970Z,962.11
2022-11-17T01:07:45.617Z,962.31
2022-11-17T01:08:02.833Z,962.31
2022-11-17T01:08:32.003Z,962.21
2022-11-17T01:09:02.914Z,962.21
2022-11-17T01:09:37.379Z,962.31
2022-11-17T01:12:35.081Z,962.31
2022-11-17T01:12:39.161Z,962.31
2022-11-17T01:13:13.442Z,962.31
2022-11-17T01:13:41.598Z,962.00
2022-11-17T01:14:19.948Z,962.00
2022-11-17T01:14:47.612Z,962.00
2022-11-17T01:15:23.311Z,962.00
2022-11-17T01:15:49.254Z,962.21
2022-11-17T01:16:18.243Z,962.21
2022-11-17T01:17:06.658Z,962.11
2022-11-17T01:17:18.613Z,962.11
2022-11-17T01:17:49.956Z,962.00
2022-11-17T01:18:19.651Z,962.00
2022-11-17T01:18:52.674Z,962.00
2022-11-17T01:19:27.960Z,962.00
2022-11-17T01:19:51.866Z,962.00
2022-11-17T01:20:23.874Z,962.00
2022-11-17T01:20:53.997Z,962.00
2022-11-17T01:21:25.469Z,962.00
2022-11-17T01:22:00.018Z,961.90
2022-11-17T01:22:28.955Z,961.90
2022-11-17T01:22:59.288Z,962.00
2022-11-17T01:23:29.937Z,962.11
2022-11-17T01:24:01.628Z,962.11
2022-11-17T01:24:32.026Z,962.11
2022-11-17T01:25:07.068Z,962.11
2022-11-17T01:25:32.953Z,962.11
2022-11-17T01:26:04.160Z,962.11
2022-11-17T01:26:35.181Z,962.00
2022-11-17T01:27:08.306Z,962.00
2022-11-17T01:27:39.825Z,962.11
2022-11-17T01:28:09.938Z,962.11
2022-11-17T01:29:11.462Z,962.00
2022-11-17T01:29:41.070Z,961.80
2022-11-17T01:30:19.016Z,961.80
2022-11-17T01:30:47.831Z,962.11
2022-11-17T01:31:17.199Z,962.11
2022-11-17T01:31:45.009Z,962.00
2022-11-17T01:32:17.698Z,962.00
2022-11-17T01:32:49.219Z,962.00
2022-11-17T01:33:28.114Z,962.00
2022-11-17T01:33:50.860Z,962.00
2022-11-17T01:34:20.549Z,962.00
2022-11-17T01:34:51.903Z,961.90
2022-11-17T01:35:23.617Z,961.90
2022-11-17T01:36:24.468Z,961.90
2022-11-17T01:36:54.862Z,961.80
2022-11-17T01:37:28.602Z,961.80
2022-11-17T01:38:03.418Z,961.90
2022-11-17T01:38:30.019Z,961.80
2022-11-17T01:39:04.696Z,961.80
2022-11-17T01:39:30.927Z,961.90
2022-11-17T01:40:05.406Z,961.90
2022-11-17T01:40:32.873Z,961.80
2022-11-17T01:41:09.560Z,961.80
2022-11-17T01:41:37.159Z,961.90
2022-11-17T01:42:06.498Z,961.90
2022-11-17T01:42:36.756Z,961.80
2022-11-17T01:43:10.657Z,961.80
2022-11-17T01:43:39.867Z,961.90
2022-11-17T01:44:10.450Z,961.90
2022-11-17T01:44:40.755Z,961.90
2022-11-17T01:45:13.497Z,961.90
2022-11-17T01:45:42.572Z,961.80
2022-11-17T01:46:13.137Z,961.80
2022-11-17T01:46:44.552Z,962.00
2022-11-17T01:47:16.925Z,962.00
2022-11-17T01:47:47.366Z,961.90
2022-11-17T01:48:19.133Z,961.90
2022-11-17T01:48:54.824Z,961.80
2022-11-17T01:49:20.236Z,961.80
2022-11-17T01:49:52.060Z,962.11
2022-11-17T01:50:21.241Z,962.11
2022-11-17T01:50:52.307Z,961.90
2022-11-17T01:51:27.130Z,961.90
2022-11-17T01:51:54.756Z,962.00
2022-11-17T01:52:26.046Z,962.00
2022-11-17T01:52:56.560Z,962.00
2022-11-17T01:53:28.862Z,962.00
2022-11-17T01:53:59.846Z,961.80
2022-11-17T01:54:30.040Z,961.80
2022-11-17T01:55:01.085Z,961.80
2022-11-17T01:55:32.082Z,961.70
2022-11-17T01:56:02.246Z,961.70
2022-11-17T01:56:51.464Z,961.80
2022-11-17T01:57:04.296Z,961.80
2022-11-17T01:57:36.016Z,961.70
2022-11-17T01:58:06.506Z,961.70
2022-11-17T01:59:22.718Z,961.60
2022-11-17T01:59:40.641Z,961.70
2022-11-17T02:00:11.091Z,961.70
2022-11-17T02:00:42.162Z,961.70
2022-11-17T02:01:12.403Z,961.70
2022-11-17T02:01:43.978Z,961.80
2022-11-17T02:02:14.991Z,961.80
2022-11-17T02:02:45.361Z,961.39
2022-11-17T02:03:20.129Z,961.39
2022-11-17T02:03:48.714Z,961.80
2022-11-17T02:04:20.635Z,961.80
2022-11-17T02:04:50.818Z,961.80
2022-11-17T02:05:39.157Z,961.80
2022-11-17T02:05:52.126Z,961.60
2022-11-17T02:06:23.466Z,961.60
2022-11-17T02:06:53.871Z,961.80
2022-11-17T02:07:24.686Z,961.80
2022-11-17T02:09:04.099Z,961.50
2022-11-17T02:09:30.053Z,961.50
2022-11-17T02:10:06.630Z,961.50
2022-11-17T02:10:31.286Z,961.70
2022-11-17T02:11:02.415Z,961.70
2022-11-17T02:11:32.606Z,961.70
2022-11-17T02:12:03.495Z,961.70
2022-11-17T02:12:34.779Z,961.50
2022-11-17T02:13:05.878Z,961.50
2022-11-17T02:13:51.451Z,961.50
2022-11-17T02:14:10.335Z,961.50
2022-11-17T02:14:39.114Z,961.60
2022-11-17T02:15:11.882Z,961.60
2022-11-17T02:15:40.980Z,961.80
2022-11-17T02:16:11.731Z,961.80
2022-11-17T02:16:43.809Z,961.60
2022-11-17T02:17:14.927Z,961.60
2022-11-17T02:17:44.563Z,961.50
2022-11-17T02:18:16.503Z,961.50
2022-11-17T02:18:46.775Z,961.70
2022-11-17T02:19:18.816Z,961.70
2022-11-17T02:19:50.393Z,961.60
2022-11-17T02:20:21.847Z,961.60
2022-11-17T02:20:52.095Z,961.80
2022-11-17T02:21:21.497Z,961.80
2022-11-17T02:21:52.438Z,961.70
2022-11-17T02:22:24.220Z,961.70
2022-11-17T02:22:54.831Z,961.60
2022-11-17T02:23:26.028Z,961.60
2022-11-17T02:24:14.407Z,961.60
2022-11-17T02:24:28.379Z,961.60
2022-11-17T02:25:00.736Z,961.70
2022-11-17T02:25:31.170Z,961.60
2022-11-17T02:26:01.567Z,961.60
2022-11-17T02:26:31.851Z,961.70
2022-11-17T02:27:03.383Z,961.70
2022-11-17T02:27:33.344Z,961.50
2022-11-17T02:28:05.947Z,961.50
2022-11-17T02:28:35.590Z,961.70
2022-11-17T02:29:06.414Z,961.70
2022-11-17T02:29:37.410Z,961.50
2022-11-17T02:30:11.220Z,961.50
2022-11-17T02:30:40.810Z,961.50
2022-11-17T02:31:12.000Z,961.50
2022-11-17T02:31:41.915Z,961.60
2022-11-17T02:32:12.740Z,961.60
2022-11-17T02:32:45.308Z,961.50
2022-11-17T02:33:14.773Z,961.50
2022-11-17T02:33:45.383Z,961.39
2022-11-17T02:34:17.312Z,961.39
2022-11-17T02:34:47.910Z,961.29
2022-11-17T02:35:21.115Z,961.29
2022-11-17T02:35:51.066Z,961.29
2022-11-17T02:36:21.347Z,961.29
2022-11-17T02:36:53.957Z,961.39
2022-11-17T02:37:41.461Z,961.50
2022-11-17T02:37:53.642Z,961.50
2022-11-17T02:38:34.604Z,961.50
2022-11-17T02:38:55.737Z,961.39
2022-11-17T02:39:26.519Z,961.39
2022-11-17T02:39:59.291Z,961.50
2022-11-17T02:40:30.210Z,961.39
2022-11-17T02:41:01.525Z,961.39
2022-11-17T02:41:31.859Z,961.19
2022-11-17T02:42:02.528Z,961.19
2022-11-17T02:42:32.700Z,961.29
2022-11-17T02:43:03.481Z,961.29
2022-11-17T02:43:35.024Z,961.39
2022-11-17T02:44:05.815Z,961.39
2022-11-17T02:44:36.672Z,961.29
2022-11-17T02:45:08.745Z,961.29
2022-11-17T02:45:40.789Z,961.39
2022-11-17T02:46:26.395Z,961.39
2022-11-17T02:46:41.576Z,961.29
2022-11-17T02:47:12.304Z,961.29
2022-11-17T02:47:42.098Z,961.09
2022-11-17T02:48:13.251Z,961.09
2022-11-17T02:48:44.677Z,961.39
2022-11-17T02:49:20.482Z,961.39
2022-11-17T02:49:46.074Z,961.19
2022-11-17T02:50:27.891Z,961.19
2022-11-17T02:51:22.219Z,961.09
2022-11-17T02:51:51.776Z,961.09
2022-11-17T02:52:21.386Z,961.09
2022-11-17T02:52:52.245Z,961.09
2022-11-17T02:53:23.461Z,961.09
2022-11-17T02:53:54.794Z,960.89
2022-11-17T02:54:25.420Z,960.89
2022-11-17T02:54:56.476Z,960.99
2022-11-17T02:55:32.041Z,960.99
2022-11-17T02:55:59.778Z,960.99
2022-11-17T02:56:30.741Z,961.19
2022-11-17T02:57:01.648Z,961.19
2022-11-17T02:57:31.482Z,961.19
2022-11-17T02:58:02.204Z,961.19
2022-11-17T02:58:34.073Z,961.09
2022-11-17T02:59:04.641Z,961.09
2022-11-17T02:59:35.855Z,960.78
2022-11-17T03:00:07.520Z,960.78
2022-11-17T03:00:38.549Z,960.99
2022-11-17T03:01:08.840Z,960.99
2022-11-17T03:01:40.794Z,960.89
2022-11-17T03:02:11.913Z,960.89
2022-11-17T03:02:42.510Z,960.89
2022-11-17T03:03:12.999Z,960.89
2022-11-17T03:03:43.370Z,960.89
2022-11-17T03:04:14.715Z,960.89
2022-11-17T03:04:45.256Z,960.62
2022-11-17T03:05:16.857Z,960.62
2022-11-17T03:05:54.061Z,960.68
2022-11-17T03:06:18.994Z,960.68
2022-11-17T03:06:51.048Z,960.62
2022-11-17T03:07:21.927Z,960.62
2022-11-17T03:07:51.835Z,960.68
2022-11-17T03:08:21.935Z,960.68
2022-11-17T03:08:53.208Z,960.51
2022-11-17T03:09:24.917Z,960.51
2022-11-17T03:09:55.322Z,960.51
2022-11-17T03:10:26.834Z,960.51
2022-11-17T03:10:57.492Z,960.41
2022-11-17T03:11:28.126Z,960.68
2022-11-17T03:12:01.504Z,960.68
2022-11-17T03:12:31.504Z,960.62
2022-11-17T03:13:02.287Z,960.62
2022-11-17T03:13:33.103Z,960.62
2022-11-17T03:14:03.545Z,960.62
2022-11-17T03:14:34.539Z,960.51
2022-11-17T03:15:06.781Z,960.51
2022-11-17T03:15:36.180Z,960.51
2022-11-17T03:16:07.556Z,960.51
2022-11-17T03:16:38.140Z,960.51
2022-11-17T03:17:17.046Z,960.51
2022-11-17T03:17:41.223Z,960.51
2022-11-17T03:18:12.569Z,960.51
2022-11-17T03:18:42.332Z,960.41
2022-11-17T03:19:13.850Z,960.41
2022-11-17T03:19:44.823Z,960.62
2022-11-17T03:20:15.862Z,960.62
2022-11-17T03:20:46.519Z,960.51
2022-11-17T03:21:17.293Z,960.51
2022-11-17T03:21:47.973Z,960.51
2022-11-17T03:22:36.315Z,960.31
2022-11-17T03:22:51.601Z,960.31
2022-11-17T03:23:57.914Z,960.31
2022-11-17T03:24:23.261Z,960.51
2022-11-17T03:24:54.651Z,960.41
2022-11-17T03:25:25.418Z,960.41
2022-11-17T03:25:56.251Z,960.51
2022-11-17T03:26:27.141Z,960.51
2022-11-17T03:26:58.661Z,960.62
2022-11-17T03:27:31.236Z,960.68
2022-11-17T03:28:01.848Z,960.68
2022-11-17T03:28:31.899Z,960.62
2022-11-17T03:29:21.629Z,960.62
2022-11-17T03:29:33.284Z,960.68
2022-11-17T03:30:06.589Z,960.68
2022-11-17T03:30:37.562Z,960.68
2022-11-17T03:31:07.812Z,960.68
2022-11-17T03:31:37.768Z,960.62
2022-11-17T03:32:08.800Z,960.62
2022-11-17T03:32:40.734Z,960.78
2022-11-17T03:33:12.199Z,960.78
2022-11-17T03:33:42.378Z,960.62
2022-11-17T03:34:12.882Z,960.62
2022-11-17T03:34:43.441Z,960.78
2022-11-17T03:35:14.902Z,960.78
2022-11-17T03:35:50.514Z,960.78
2022-11-17T03:36:16.550Z,960.78
2022-11-17T03:36:47.392Z,960.78
2022-11-17T03:37:18.000Z,960.78
2022-11-17T03:37:51.491Z,960.78
2022-11-17T03:38:21.769Z,960.78
2022-11-17T03:38:53.500Z,960.68
2022-11-17T03:39:23.165Z,960.68
2022-11-17T03:39:53.355Z,960.68
2022-11-17T03:40:41.974Z,960.68
2022-11-17T03:40:55.366Z,960.68
2022-11-17T03:41:26.317Z,960.68
2022-11-17T03:41:57.448Z,960.68
2022-11-17T03:42:28.287Z,960.68
2022-11-17T03:43:01.118Z,960.68
2022-11-17T03:43:32.279Z,960.62
2022-11-17T03:44:02.549Z,960.62
2022-11-17T03:44:32.791Z,960.68
2022-11-17T03:45:04.604Z,960.68
2022-11-17T03:45:34.535Z,960.68
2022-11-17T03:46:05.752Z,960.68
2022-11-17T03:46:36.363Z,960.68
2022-11-17T03:47:07.511Z,960.68
2022-11-17T03:47:38.271Z,960.89
2022-11-17T03:48:11.589Z,960.89
2022-11-17T03:48:47.253Z,960.62
2022-11-17T03:49:28.643Z,960.68
2022-11-17T03:49:42.570Z,960.68
2022-11-17T03:50:14.321Z,960.68
2022-11-17T03:50:44.873Z,960.62
2022-11-17T03:51:15.575Z,960.62
2022-11-17T03:51:46.234Z,960.68
2022-11-17T03:52:17.763Z,960.68
2022-11-17T03:52:48.460Z,960.62
2022-11-17T03:53:21.126Z,960.62
2022-11-17T03:53:51.863Z,960.62
2022-11-17T03:54:22.603Z,960.62
2022-11-17T03:54:53.601Z,960.78
2022-11-17T03:55:24.681Z,960.78
2022-11-17T03:55:55.066Z,960.51
2022-11-17T03:56:25.802Z,960.51
2022-11-17T03:56:56.444Z,960.62
2022-11-17T03:57:27.799Z,960.62
2022-11-17T03:58:16.491Z,960.51
2022-11-17T03:58:31.988Z,960.62
2022-11-17T03:59:03.069Z,960.62
2022-11-17T03:59:33.710Z,960.51
2022-11-17T04:00:04.833Z,960.51
2022-11-17T04:00:33.581Z,960.31
2022-11-17T04:01:36.569Z,960.51
2022-11-17T04:02:12.395Z,960.51
2022-11-17T04:02:38.471Z,960.41
2022-11-17T04:03:08.940Z,960.41
2022-11-17T04:03:57.404Z,960.41
2022-11-17T04:04:12.516Z,960.41
2022-11-17T04:04:43.469Z,960.41
2022-11-17T04:05:13.174Z,960.41
2022-11-17T04:05:44.599Z,960.21
2022-11-17T04:06:15.612Z,960.21
2022-11-17T04:06:46.301Z,960.51
2022-11-17T04:07:33.826Z,960.41
2022-11-17T04:07:48.292Z,960.41
2022-11-17T04:08:18.665Z,960.41
2022-11-17T04:08:50.065Z,960.51
2022-11-17T04:09:24.586Z,960.51
2022-11-17T04:09:53.094Z,960.31
2022-11-17T04:10:24.587Z,960.31
2022-11-17T04:10:53.716Z,960.41
2022-11-17T04:11:24.947Z,960.41
2022-11-17T04:11:55.662Z,960.31
2022-11-17T04:12:26.540Z,960.31
2022-11-17T04:12:57.376Z,960.41
2022-11-17T04:13:46.154Z,960.41
2022-11-17T04:14:00.560Z,960.41
2022-11-17T04:14:33.095Z,960.31
2022-11-17T04:15:04.643Z,960.31
2022-11-17T04:15:33.015Z,960.11
2022-11-17T04:16:05.812Z,960.11
2022-11-17T04:16:34.456Z,960.11
2022-11-17T04:17:05.658Z,960.11
2022-11-17T04:17:36.548Z,960.11
2022-11-17T04:18:07.501Z,960.11
2022-11-17T04:18:38.529Z,960.11
2022-11-17T04:19:09.465Z,960.11
2022-11-17T04:19:43.207Z,960.11
2022-11-17T04:20:13.533Z,960.11
2022-11-17T04:20:44.085Z,960.11
2022-11-17T04:21:13.494Z,960.11
2022-11-17T04:21:44.937Z,959.90
2022-11-17T04:22:15.691Z,959.90
2022-11-17T04:22:46.771Z,959.90
2022-11-17T04:23:17.921Z,959.90
2022-11-17T04:23:49.157Z,959.90
2022-11-17T04:24:19.631Z,959.90
2022-11-17T04:24:52.477Z,960.01
2022-11-17T04:25:23.578Z,960.01
2022-11-17T04:25:53.771Z,959.90
2022-11-17T04:26:23.974Z,959.90
2022-11-17T04:26:54.927Z,959.80
2022-11-17T04:27:25.859Z,959.80
2022-11-17T04:27:56.496Z,959.80
2022-11-17T04:28:27.523Z,959.80
2022-11-17T04:28:58.627Z,959.70
2022-11-17T04:29:29.803Z,959.80
2022-11-17T04:30:04.124Z,959.80
2022-11-17T04:30:32.891Z,959.60
2022-11-17T04:31:03.763Z,959.60
2022-11-17T04:31:34.311Z,959.70
2022-11-17T04:32:05.376Z,959.70
2022-11-17T04:32:36.068Z,959.70
2022-11-17T04:33:07.569Z,959.70
2022-11-17T04:33:38.120Z,959.90
2022-11-17T04:34:09.820Z,959.90
2022-11-17T04:34:39.533Z,959.80
2022-11-17T04:35:13.234Z,959.80
2022-11-17T04:35:43.381Z,959.90
2022-11-17T04:36:13.300Z,959.90
2022-11-17T04:36:43.784Z,959.70
2022-11-17T04:37:14.652Z,959.70
2022-11-17T04:37:45.735Z,959.80
2022-11-17T04:38:16.414Z,959.80
2022-11-17T04:38:47.743Z,959.70
2022-11-17T04:39:19.012Z,959.70
2022-11-17T04:39:49.625Z,959.90
2022-11-17T04:40:23.609Z,959.90
2022-11-17T04:40:53.344Z,959.80
2022-11-17T04:41:23.279Z,959.80
2022-11-17T04:41:54.425Z,959.80
2022-11-17T04:42:25.001Z,959.80
2022-11-17T04:43:14.009Z,959.80
2022-11-17T04:43:32.064Z,959.80
2022-11-17T04:43:57.692Z,959.70
2022-11-17T04:44:28.612Z,959.80
2022-11-17T04:44:59.535Z,959.80
2022-11-17T04:45:32.995Z,959.70
2022-11-17T04:46:03.211Z,959.70
2022-11-17T04:46:33.796Z,959.60
2022-11-17T04:47:03.885Z,959.60
2022-11-17T04:47:34.993Z,959.60
2022-11-17T04:48:06.212Z,959.60
2022-11-17T04:49:07.756Z,959.60
2022-11-17T04:49:38.643Z,959.70
2022-11-17T04:50:09.793Z,959.70
2022-11-17T04:50:42.211Z,959.50
2022-11-17T04:51:12.788Z,959.50
2022-11-17T04:51:43.230Z,959.50
2022-11-17T04:52:14.083Z,959.50
2022-11-17T04:52:45.336Z,959.60
2022-11-17T04:53:16.155Z,959.60
2022-11-17T04:53:47.698Z,959.60
2022-11-17T04:54:17.856Z,959.60
2022-11-17T04:54:48.878Z,959.60
2022-11-17T04:55:20.214Z,959.60
2022-11-17T04:55:52.858Z,959.40
2022-11-17T04:56:23.068Z,959.40
2022-11-17T04:56:53.590Z,959.50
2022-11-17T04:57:23.734Z,959.50
2022-11-17T04:57:54.868Z,959.40
2022-11-17T04:58:26.079Z,959.40
2022-11-17T04:58:56.673Z,959.50
2022-11-17T04:59:27.708Z,959.40
2022-11-17T04:59:58.495Z,959.40
2022-11-17T05:00:30.606Z,959.50
2022-11-17T05:01:02.463Z,959.50
2022-11-17T05:01:31.823Z,959.40
2022-11-17T05:02:06.168Z,959.40
2022-11-17T05:02:34.028Z,959.40
2022-11-17T05:03:05.856Z,959.40
2022-11-17T05:03:36.880Z,959.29
2022-11-17T05:04:13.632Z,959.29
2022-11-17T05:04:38.381Z,959.40
2022-11-17T05:05:10.023Z,959.40
2022-11-17T05:05:40.827Z,959.40
2022-11-17T05:06:11.500Z,959.40
2022-11-17T05:06:41.901Z,959.50
2022-11-17T05:07:12.879Z,959.50
2022-11-17T05:07:43.717Z,959.60
2022-11-17T05:08:15.235Z,959.60
2022-11-17T05:08:45.688Z,959.40
2022-11-17T05:09:16.679Z,959.40
2022-11-17T05:10:05.719Z,959.50
2022-11-17T05:10:19.130Z,959.50
2022-11-17T05:10:49.774Z,959.40
2022-11-17T05:11:20.984Z,959.40
2022-11-17T05:11:52.167Z,959.40
2022-11-17T05:12:22.691Z,959.40
2022-11-17T05:12:53.825Z,959.40
2022-11-17T05:13:25.208Z,959.40
2022-11-17T05:13:56.087Z,959.19
2022-11-17T05:14:27.879Z,959.19
2022-11-17T05:14:59.333Z,959.50
2022-11-17T05:15:30.191Z,959.29
2022-11-17T05:16:01.315Z,959.29
2022-11-17T05:16:30.982Z,959.19
2022-11-17T05:17:09.122Z,959.19
2022-11-17T05:17:32.578Z,959.29
2022-11-17T05:18:04.158Z,959.29
2022-11-17T05:18:35.263Z,959.29
2022-11-17T05:19:06.644Z,959.29
2022-11-17T05:19:36.729Z,959.40
2022-11-17T05:20:11.303Z,959.40
2022-11-17T05:20:39.871Z,959.29
2022-11-17T05:21:10.063Z,959.29
2022-11-17T05:21:40.985Z,959.19
2022-11-17T05:22:11.766Z,959.19
2022-11-17T05:22:48.563Z,959.09
2022-11-17T05:23:14.403Z,959.09
2022-11-17T05:23:45.516Z,959.40
2022-11-17T05:24:16.174Z,959.40
2022-11-17T05:24:46.677Z,959.40
2022-11-17T05:25:19.791Z,959.40
2022-11-17T05:25:50.262Z,959.29
2022-11-17T05:26:20.161Z,959.29
2022-11-17T05:26:50.987Z,959.29
2022-11-17T05:27:21.796Z,959.29
2022-11-17T05:27:54.291Z,959.19
2022-11-17T05:28:24.485Z,959.19
2022-11-17T05:28:55.251Z,959.29
2022-11-17T05:29:26.253Z,959.29
2022-11-17T05:29:56.540Z,959.29
2022-11-17T05:30:28.453Z,959.09
2022-11-17T05:31:31.269Z,959.09
2022-11-17T05:32:01.231Z,959.09
2022-11-17T05:32:31.615Z,958.99
2022-11-17T05:33:03.126Z,958.99
2022-11-17T05:33:37.783Z,959.29
2022-11-17T05:34:05.973Z,959.29
2022-11-17T05:34:36.485Z,959.19
2022-11-17T05:35:08.213Z,959.19
2022-11-17T05:35:37.945Z,959.29
2022-11-17T05:36:10.375Z,959.29
2022-11-17T05:36:40.948Z,959.19
2022-11-17T05:37:13.899Z,959.19
2022-11-17T05:38:12.957Z,959.29
2022-11-17T05:38:43.848Z,959.09
2022-11-17T05:39:15.286Z,959.09
2022-11-17T05:39:46.583Z,959.40
2022-11-17T05:40:19.336Z,959.40
2022-11-17T05:40:49.182Z,959.29
2022-11-17T05:41:18.950Z,959.29
2022-11-17T05:41:50.024Z,959.29
2022-11-17T05:42:21.146Z,959.29
2022-11-17T05:42:56.853Z,959.19
2022-11-17T05:43:23.119Z,959.19
2022-11-17T05:43:53.910Z,959.40
2022-11-17T05:44:25.135Z,959.40
2022-11-17T05:44:56.248Z,958.99
2022-11-17T05:45:27.278Z,958.99
2022-11-17T05:45:57.942Z,959.29
2022-11-17T05:46:29.077Z,959.19
2022-11-17T05:47:00.669Z,959.19
2022-11-17T05:47:31.135Z,959.40
2022-11-17T05:48:02.270Z,959.40
2022-11-17T05:48:33.010Z,959.29
2022-11-17T05:49:05.017Z,959.29
2022-11-17T05:49:35.620Z,959.29
2022-11-17T05:50:16.961Z,959.29
2022-11-17T05:50:37.083Z,959.29
2022-11-17T05:51:08.450Z,959.29
2022-11-17T05:51:38.923Z,959.40
2022-11-17T05:52:10.812Z,959.40
2022-11-17T05:52:41.149Z,959.40
2022-11-17T05:53:12.604Z,959.40
2022-11-17T05:53:42.879Z,959.40
2022-11-17T05:54:14.053Z,959.40
2022-11-17T05:54:45.160Z,959.50
2022-11-17T05:55:18.285Z,959.50
2022-11-17T05:55:49.000Z,959.40
2022-11-17T05:56:19.285Z,959.40
2022-11-17T05:56:49.628Z,959.60
2022-11-17T05:57:20.191Z,959.60
2022-11-17T05:57:51.141Z,959.29
2022-11-17T05:58:21.814Z,959.29
2022-11-17T05:58:52.857Z,959.60
2022-11-17T05:59:27.816Z,959.60
2022-11-17T05:59:54.929Z,959.60
2022-11-17T06:00:29.218Z,959.60
2022-11-17T06:01:28.837Z,959.50
2022-11-17T06:01:58.884Z,959.50
2022-11-17T06:02:30.258Z,959.50
2022-11-17T06:03:01.037Z,959.50
2022-11-17T06:03:31.758Z,959.50
2022-11-17T06:04:03.338Z,959.50
2022-11-17T06:04:34.616Z,959.40
2022-11-17T06:05:06.221Z,959.40
2022-11-17T06:05:37.479Z,959.40
2022-11-17T06:06:08.931Z,959.40
2022-11-17T06:06:38.789Z,959.29
2022-11-17T06:07:09.672Z,959.29
2022-11-17T06:07:40.740Z,959.50
2022-11-17T06:08:10.907Z,959.50
2022-11-17T06:08:43.132Z,959.50
2022-11-17T06:09:30.282Z,959.50
2022-11-17T06:09:44.679Z,959.50
2022-11-17T06:10:18.847Z,959.50
2022-11-17T06:10:48.015Z,959.40
2022-11-17T06:11:19.743Z,959.40
2022-11-17T06:11:49.239Z,959.50
2022-11-17T06:12:19.313Z,959.50
2022-11-17T06:12:50.247Z,959.19
2022-11-17T06:14:02.748Z,959.19
2022-11-17T06:14:28.119Z,959.50
2022-11-17T06:14:53.941Z,959.19
2022-11-17T06:15:26.035Z,959.19
2022-11-17T06:15:57.857Z,959.19
2022-11-17T06:16:28.309Z,959.19
2022-11-17T06:16:58.862Z,959.29
2022-11-17T06:17:30.196Z,959.19
2022-11-17T06:18:00.163Z,959.19
2022-11-17T06:18:31.027Z,959.09
2022-11-17T06:19:08.992Z,959.09
2022-11-17T06:19:33.034Z,959.09
2022-11-17T06:20:04.301Z,959.09
2022-11-17T06:20:37.671Z,959.29
2022-11-17T06:22:09.949Z,959.09
2022-11-17T06:22:44.058Z,958.89
2022-11-17T06:23:09.875Z,958.89
2022-11-17T06:23:40.774Z,959.19
2022-11-17T06:24:12.323Z,959.19
2022-11-17T06:24:43.011Z,959.09
2022-11-17T06:25:14.084Z,959.09
2022-11-17T06:25:45.970Z,959.09
2022-11-17T06:26:19.711Z,959.09
2022-11-17T06:26:48.935Z,959.19
2022-11-17T06:27:18.936Z,959.19
2022-11-17T06:27:49.876Z,959.09
2022-11-17T06:28:20.699Z,959.09
2022-11-17T06:28:51.266Z,958.99
2022-11-17T06:29:22.326Z,958.99
2022-11-17T06:29:53.647Z,959.09
2022-11-17T06:30:55.874Z,958.99
2022-11-17T06:31:27.298Z,958.99
2022-11-17T06:31:58.986Z,958.89
2022-11-17T06:32:29.716Z,958.99
2022-11-17T06:33:00.558Z,958.99
2022-11-17T06:33:30.680Z,958.99
2022-11-17T06:34:01.675Z,958.99
2022-11-17T06:34:31.895Z,959.09
2022-11-17T06:35:03.104Z,959.09
2022-11-17T06:35:33.788Z,959.09
2022-11-17T06:36:22.423Z,959.09
2022-11-17T06:36:37.190Z,958.99
2022-11-17T06:37:09.175Z,958.99
2022-11-17T06:37:39.625Z,959.09
2022-11-17T06:38:10.141Z,959.09
2022-11-17T06:38:40.578Z,958.79